Observations for BIRMINGHAM AIRPORT, United Kingdom (EGBB)

EGBB 190320Z 20009KT 160V240 9999 FEW010 BKN018 15/14 Q1009 
EGBB 190250Z 21009KT 170V240 9999 SCT010 16/14 Q1009
EGBB 190220Z 20008KT 9999 BKN010 16/14 Q1009
EGBB 190150Z 21008KT 170V240 9999 SCT012 16/15 Q1009
EGBB 190120Z 20009KT 180V240 9999 SCT010 16/15 Q1009
EGBB 190050Z 20007KT 170V260 9999 SCT010 16/15 Q1009
EGBB 190020Z 20012KT 160V230 9999 BKN014 BKN017 17/14 Q1009 
EGBB 182350Z 20011KT 9999 BKN020 BKN027 18/14 Q1009 
EGBB 182320Z 20011KT 170V230 9999 FEW021 OVC028 18/14 Q1009 
EGBB 182250Z 19010KT 160V220 9999 FEW020 BKN030 18/14 Q1009 
EGBB 182220Z 20012KT 9999 FEW021 SCT030 18/14 Q1009 
EGBB 182150Z 20010KT 160V230 9999 FEW022 SCT027 BKN032 18/14 Q1009  
EGBB 182120Z 21010KT 160V240 9999 SCT023 BKN048 18/14 Q1009 
EGBB 182050Z 20011KT 170V240 9999 SCT024 18/14 Q1009
EGBB 182020Z 20010KT 150V230 9999 BKN024 18/14 Q1008
EGBB 181950Z 19010KT 9999 SCT024 BKN030 18/14 Q1008 
EGBB 181920Z 19010KT 9999 SCT024 BKN030 18/15 Q1008 
EGBB 181850Z 20009KT 170V230 9999 -SHRA SCT026 SCT034 18/14 Q1008   
EGBB 181820Z 21009KT 9999 SCT024 SCT042 18/14 Q1008 
EGBB 181750Z 20010KT 180V240 9999 SCT026 SCT034 19/14 Q1008 
EGBB 181720Z 21011KT 170V240 9999 SCT030 20/13 Q1008
EGBB 181650Z 22011KT 180V250 9999 SCT027 SCT040 20/14 Q1008 
EGBB 181620Z 21012KT 170V250 9999 SCT027 SCT033 20/14 Q1008 
EGBB 181550Z 22010KT 180V260 9999 SCT026 SCT034 20/14 Q1008 
EGBB 181520Z 21010KT 170V230 9999 SCT024 SCT032 20/15 Q1008 
EGBB 181450Z 20010KT 170V240 9999 FEW024 BKN028 20/15 Q1008 
EGBB 181420Z 21010KT 160V250 9999 FEW015 SCT026 19/15 Q1008 
EGBB 181350Z 22012KT 190V260 9999 -SHRA SCT022 BKN030 19/14 Q1008   
EGBB 181320Z 22010KT 190V260 9999 SCT029 BKN036 20/14 Q1007 
EGBB 181250Z 22011KT 180V250 9999 BKN032 20/13 Q1007
EGBB 181220Z 24009KT 200V280 9999 BKN030 20/13 Q1007
EGBB 181150Z 23013KT 9999 BKN033 19/12 Q1006
EGBB 181120Z 23012KT 190V270 9999 SCT034 20/12 Q1006
EGBB 181050Z 23011KT 170V270 9999 FEW030 19/12 Q1006
EGBB 181020Z 23012G22KT 200V270 9999 FEW025 19/12 Q1005 
EGBB 180950Z 21012G22KT 170V240 9999 SCT017 SCT022 19/14 Q1004  
EGBB 180920Z 21011KT 170V250 9999 SCT013 SCT018 17/14 Q1004 
EGBB 180850Z 20010KT 160V240 9999 BKN013 OVC017 17/15 Q1003 
EGBB 180820Z 21011G22KT 180V250 9999 SCT015 BKN021 17/15 Q1003  
EGBB 180750Z 20013KT 170V250 9999 -DZ BKN011 OVC015 17/15 Q1002 
EGBB 180720Z 20012G24KT 170V230 9999 4300E -DZ BKN007 OVC011 17/16 Q1001
EGBB 180650Z 20015G25KT 3800 -DZ OVC010 17/16 Q1001 
EGBB 180620Z 20014G25KT 170V250 9999 6000W VCSH OVC015 18/15 Q1000  
EGBB 180550Z 20015KT 160V230 9999 BKN017 18/15 Q1000
EGBB 180520Z 19014G25KT 9999 BKN018 18/15 Q0999 
EGBB 180450Z 19015KT 9999 OVC017 19/15 Q0999
EGBB 180420Z 19013G23KT 9999 OVC017 19/15 Q1000 
EGBB 180350Z 18014KT 9999 OVC018 19/15 Q1000
EGBB 180320Z 17010KT 130V190 9999 OVC017 18/15 Q1000
EGBB 180250Z 16010KT 9999 BKN017 OVC028 17/14 Q1001